PWSweather.com
Personal Weather Stations
Station Observations
KWAGIGHA17
Gig Harbor, WA 98332

Gig Harbor, WA 98332

Lat: 47.35323, Lon: -122.58817

Elevation: 318

Station Type: Davis VP2 Wireless

http://www.gigharborweather.com

Latest ConditionsUpdated 11:00:15 AM PDT Tuesday, Sep 1, 2015
Currently Today's Max Today's Min Today's Average
Temperature 61.1°F16.2°C 61.1°F16.2°C 59.4°F15.2°C 60.4°F15.8°C
Dew Point 57.5°F14.2°C 57.7°F14.3°C 54.1°F12.3°C 55.1°F12.8°C
Winds 5.5 mph WSW8.9 kmh WSW 5.5 mph WSW8.9 kmh WSW - 1.7 mph 2.7 kmh
Wind Gusts 6.0 mph9.7 kmh 10.0 mph16.1 kmh - -
Humidity 88% 90% 79% 83%
Pressure 29.84 in1010.5 mb 29.89 in1012.2 mb 29.83 in1010.2 mb -
Precipitation - 0.11 in2.8 mm - -
Hour Temp Dew Point Humidity Winds Wind Gusts Pressure Precip Precip Rate Daily Precip Total
11:00 AM 61.1°F16.2°C 57.5°F14.2°C 88% 5.5 mph WSW8.9 kmh WSW 6.0 mph9.7 kmh 29.84 in1010.5 mb - 0.00 in0.0 mm 0.11 in2.8 mm
10:50 AM 60.8°F16.0°C 57.6°F14.2°C 89% 4.0 mph S6.4 kmh S 9.0 mph14.5 kmh 29.84 in1010.5 mb - 0.00 in0.0 mm 0.11 in2.8 mm
10:40 AM 60.6°F15.9°C 57.7°F14.3°C 90% 4.2 mph SW6.8 kmh SW 6.0 mph9.7 kmh 29.84 in1010.5 mb - 0.00 in0.0 mm 0.11 in2.8 mm
10:30 AM 60.3°F15.7°C 57.0°F13.9°C 89% 2.2 mph WSW3.5 kmh WSW 4.0 mph6.4 kmh 29.84 in1010.5 mb - 0.00 in0.0 mm 0.11 in2.8 mm
10:20 AM 60.0°F15.6°C 56.7°F13.7°C 89% 3.6 mph WSW5.8 kmh WSW 8.0 mph12.9 kmh 29.84 in1010.5 mb - 0.00 in0.0 mm 0.11 in2.8 mm
10:10 AM 59.6°F15.3°C 56.4°F13.6°C 89% 0.3 mph NW0.5 kmh NW 4.0 mph6.4 kmh 29.84 in1010.5 mb - 0.01 in0.3 mm 0.11 in2.8 mm
10:00 AM 59.4°F15.2°C 56.2°F13.4°C 89% 2.5 mph SW4.0 kmh SW 5.0 mph8.0 kmh 29.84 in1010.5 mb - 0.00 in0.0 mm 0.10 in2.5 mm
09:50 AM 59.4°F15.2°C 56.2°F13.4°C 89% 2.9 mph SW4.7 kmh SW 7.0 mph11.3 kmh 29.84 in1010.5 mb - 0.00 in0.0 mm 0.10 in2.5 mm
09:40 AM 59.6°F15.3°C 56.0°F13.3°C 88% 3.6 mph WSW5.8 kmh WSW 8.0 mph12.9 kmh 29.84 in1010.5 mb - 0.01 in0.3 mm 0.10 in2.5 mm
09:30 AM 59.8°F15.4°C 56.2°F13.4°C 88% 3.2 mph SSE5.1 kmh SSE 7.0 mph11.3 kmh 29.84 in1010.5 mb - 0.04 in1.0 mm 0.09 in2.3 mm
09:20 AM 59.8°F15.4°C 56.2°F13.4°C 88% Calm Calm -- 29.84 in1010.5 mb - 0.01 in0.3 mm 0.06 in1.5 mm
09:10 AM 59.7°F15.4°C 55.8°F13.2°C 87% Calm Calm -- 29.83 in1010.2 mb - 0.00 in0.0 mm 0.05 in1.3 mm
09:00 AM 59.7°F15.4°C 55.8°F13.2°C 87% 0.1 mph S0.2 kmh S 3.0 mph4.8 kmh 29.84 in1010.5 mb - 0.02 in0.5 mm 0.05 in1.3 mm
08:50 AM 59.8°F15.4°C 55.9°F13.3°C 87% 0.6 mph S1.0 kmh S -- 29.84 in1010.5 mb - 0.02 in0.5 mm 0.04 in1.0 mm
08:40 AM 59.8°F15.4°C 55.6°F13.1°C 86% Calm Calm -- 29.84 in1010.5 mb - 0.01 in0.3 mm 0.02 in0.5 mm
08:30 AM 59.8°F15.4°C 55.3°F12.9°C 85% Calm Calm -- 29.83 in1010.2 mb - 0.00 in0.0 mm 0.01 in0.3 mm
08:20 AM 59.9°F15.5°C 55.4°F13.0°C 85% Calm Calm -- 29.83 in1010.2 mb - 0.00 in0.0 mm 0.01 in0.3 mm
08:10 AM 60.0°F15.6°C 55.5°F13.1°C 85% Calm Calm -- 29.84 in1010.5 mb - 0.00 in0.0 mm 0.01 in0.3 mm
08:00 AM 60.1°F15.6°C 55.3°F12.9°C 84% Calm Calm -- 29.84 in1010.5 mb - 0.00 in0.0 mm 0.01 in0.3 mm
07:50 AM 60.4°F15.8°C 55.2°F12.9°C 83% 1.8 mph WSW2.9 kmh WSW 6.0 mph9.7 kmh 29.84 in1010.5 mb - 0.00 in0.0 mm 0.01 in0.3 mm
07:40 AM 60.5°F15.8°C 55.0°F12.8°C 82% 1.7 mph WSW2.7 kmh WSW 9.0 mph14.5 kmh 29.84 in1010.5 mb - 0.00 in0.0 mm 0.01 in0.3 mm
07:30 AM 60.4°F15.8°C 54.6°F12.6°C 81% 0.4 mph SSW0.6 kmh SSW 7.0 mph11.3 kmh 29.84 in1010.5 mb - 0.00 in0.0 mm 0.01 in0.3 mm
07:20 AM 60.3°F15.7°C 54.4°F12.4°C 81% 4.2 mph S6.8 kmh S 10.0 mph16.1 kmh 29.84 in1010.5 mb - 0.00 in0.0 mm 0.01 in0.3 mm
07:10 AM 60.1°F15.6°C 54.6°F12.6°C 82% 4.0 mph SW6.4 kmh SW 9.0 mph14.5 kmh 29.84 in1010.5 mb - 0.00 in0.0 mm 0.01 in0.3 mm
07:00 AM 60.0°F15.6°C 54.5°F12.5°C 82% 3.0 mph S4.8 kmh S 4.0 mph6.4 kmh 29.84 in1010.5 mb - 0.00 in0.0 mm 0.01 in0.3 mm
06:50 AM 60.1°F15.6°C 54.6°F12.6°C 82% 2.1 mph WSW3.4 kmh WSW 8.0 mph12.9 kmh 29.84 in1010.5 mb - 0.00 in0.0 mm 0.01 in0.3 mm
06:40 AM 60.3°F15.7°C 54.8°F12.7°C 82% 2.0 mph SSW3.2 kmh SSW 4.0 mph6.4 kmh 29.84 in1010.5 mb - 0.01 in0.3 mm 0.01 in0.3 mm
06:30 AM 60.6°F15.9°C 54.7°F12.6°C 81% Calm Calm -- 29.84 in1010.5 mb - 0.01 in0.3 mm 0.01 in0.3 mm
06:20 AM 60.7°F15.9°C 54.5°F12.5°C 80% 1.4 mph SW2.3 kmh SW 6.0 mph9.7 kmh 29.85 in1010.8 mb - 0.00 in0.0 mm 0.00 in0.0 mm
06:10 AM 60.8°F16.0°C 54.6°F12.6°C 80% 0.9 mph SSW1.4 kmh SSW 1.0 mph1.6 kmh 29.85 in1010.8 mb - 0.00 in0.0 mm 0.00 in0.0 mm
06:00 AM 60.8°F16.0°C 54.2°F12.3°C 79% 0.6 mph S1.0 kmh S -- 29.85 in1010.8 mb - 0.00 in0.0 mm 0.00 in0.0 mm
05:50 AM 60.7°F15.9°C 54.5°F12.5°C 80% 1.0 mph SW1.6 kmh SW 1.0 mph1.6 kmh 29.85 in1010.8 mb - 0.00 in0.0 mm 0.00 in0.0 mm
05:40 AM 60.6°F15.9°C 54.4°F12.4°C 80% 3.8 mph SW6.1 kmh SW 7.0 mph11.3 kmh 29.85 in1010.8 mb - 0.00 in0.0 mm 0.00 in0.0 mm
05:30 AM 60.5°F15.8°C 54.6°F12.6°C 81% 4.1 mph S6.6 kmh S 7.0 mph11.3 kmh 29.86 in1011.2 mb - 0.00 in0.0 mm 0.00 in0.0 mm
05:20 AM 60.3°F15.7°C 54.4°F12.4°C 81% 1.4 mph S2.3 kmh S 9.0 mph14.5 kmh 29.86 in1011.2 mb - 0.00 in0.0 mm 0.00 in0.0 mm
05:10 AM 60.2°F15.7°C 54.7°F12.6°C 82% Calm Calm -- 29.86 in1011.2 mb - 0.00 in0.0 mm 0.00 in0.0 mm
05:00 AM 60.0°F15.6°C 54.5°F12.5°C 82% 2.9 mph S4.7 kmh S 4.0 mph6.4 kmh 29.85 in1010.8 mb - 0.00 in0.0 mm 0.00 in0.0 mm
04:50 AM 59.9°F15.5°C 54.3°F12.4°C 82% 0.7 mph SE1.1 kmh SE 7.0 mph11.3 kmh 29.86 in1011.2 mb - 0.00 in0.0 mm 0.00 in0.0 mm
04:40 AM 59.8°F15.4°C 54.6°F12.6°C 83% 0.4 mph SSE0.6 kmh SSE 1.0 mph1.6 kmh 29.86 in1011.2 mb - 0.00 in0.0 mm 0.00 in0.0 mm
04:30 AM 59.9°F15.5°C 54.7°F12.6°C 83% 1.2 mph SSE1.9 kmh SSE 5.0 mph8.0 kmh 29.86 in1011.2 mb - 0.00 in0.0 mm 0.00 in0.0 mm
04:20 AM 60.1°F15.6°C 54.9°F12.7°C 83% Calm Calm -- 29.86 in1011.2 mb - 0.00 in0.0 mm 0.00 in0.0 mm
04:10 AM 60.3°F15.7°C 54.8°F12.7°C 82% 0.3 mph SW0.5 kmh SW 7.0 mph11.3 kmh 29.86 in1011.2 mb - 0.00 in0.0 mm 0.00 in0.0 mm
04:00 AM 60.5°F15.8°C 55.0°F12.8°C 82% 0.5 mph SE0.8 kmh SE -- 29.86 in1011.2 mb - 0.00 in0.0 mm 0.00 in0.0 mm
03:50 AM 60.7°F15.9°C 54.8°F12.7°C 81% Calm Calm -- 29.86 in1011.2 mb - 0.00 in0.0 mm 0.00 in0.0 mm
03:40 AM 60.8°F16.0°C 54.6°F12.6°C 80% 2.6 mph S4.2 kmh S 6.0 mph9.7 kmh 29.87 in1011.5 mb - 0.00 in0.0 mm 0.00 in0.0 mm
03:30 AM 60.7°F15.9°C 54.5°F12.5°C 80% 2.6 mph SW4.2 kmh SW 6.0 mph9.7 kmh 29.86 in1011.2 mb - 0.00 in0.0 mm 0.00 in0.0 mm
03:20 AM 60.7°F15.9°C 54.5°F12.5°C 80% 0.7 mph WSW1.1 kmh WSW 5.0 mph8.0 kmh 29.87 in1011.5 mb - 0.00 in0.0 mm 0.00 in0.0 mm
03:10 AM 60.6°F15.9°C 54.4°F12.4°C 80% 1.8 mph SE2.9 kmh SE 6.0 mph9.7 kmh 29.87 in1011.5 mb - 0.00 in0.0 mm 0.00 in0.0 mm
03:00 AM 60.6°F15.9°C 54.4°F12.4°C 80% 0.1 mph S0.2 kmh S 5.0 mph8.0 kmh 29.87 in1011.5 mb - 0.00 in0.0 mm 0.00 in0.0 mm
02:50 AM 60.7°F15.9°C 54.1°F12.3°C 79% 1.1 mph S1.8 kmh S 5.0 mph8.0 kmh 29.87 in1011.5 mb - 0.00 in0.0 mm 0.00 in0.0 mm
02:40 AM 60.8°F16.0°C 54.2°F12.3°C 79% 1.2 mph WSW1.9 kmh WSW 3.0 mph4.8 kmh 29.87 in1011.5 mb - 0.00 in0.0 mm 0.00 in0.0 mm
02:30 AM 60.9°F16.1°C 54.3°F12.4°C 79% 3.5 mph SE5.6 kmh SE 7.0 mph11.3 kmh 29.87 in1011.5 mb - 0.00 in0.0 mm 0.00 in0.0 mm
02:20 AM 60.9°F16.1°C 54.7°F12.6°C 80% 1.3 mph SSE2.1 kmh SSE 5.0 mph8.0 kmh 29.87 in1011.5 mb - 0.00 in0.0 mm 0.00 in0.0 mm
02:10 AM 60.9°F16.1°C 54.3°F12.4°C 79% 2.8 mph S4.5 kmh S 8.0 mph12.9 kmh 29.87 in1011.5 mb - 0.00 in0.0 mm 0.00 in0.0 mm
02:00 AM 60.9°F16.1°C 54.7°F12.6°C 80% 0.9 mph SE1.4 kmh SE 6.0 mph9.7 kmh 29.87 in1011.5 mb - 0.00 in0.0 mm 0.00 in0.0 mm
01:50 AM 60.9°F16.1°C 54.7°F12.6°C 80% 1.4 mph SE2.3 kmh SE 4.0 mph6.4 kmh 29.87 in1011.5 mb - 0.00 in0.0 mm 0.00 in0.0 mm
01:40 AM 60.8°F16.0°C 54.6°F12.6°C 80% 3.5 mph S5.6 kmh S 8.0 mph12.9 kmh 29.88 in1011.9 mb - 0.00 in0.0 mm 0.00 in0.0 mm
01:30 AM 60.7°F15.9°C 54.5°F12.5°C 80% 2.7 mph S4.3 kmh S 2.0 mph3.2 kmh 29.88 in1011.9 mb - 0.00 in0.0 mm 0.00 in0.0 mm
01:20 AM 60.6°F15.9°C 54.8°F12.7°C 81% 0.5 mph SSW0.8 kmh SSW 5.0 mph8.0 kmh 29.88 in1011.9 mb - 0.00 in0.0 mm 0.00 in0.0 mm
01:10 AM 60.6°F15.9°C 54.8°F12.7°C 81% 2.9 mph SE4.7 kmh SE 6.0 mph9.7 kmh 29.88 in1011.9 mb - 0.00 in0.0 mm 0.00 in0.0 mm
01:00 AM 60.6°F15.9°C 54.8°F12.7°C 81% 0.5 mph S0.8 kmh S 6.0 mph9.7 kmh 29.88 in1011.9 mb - 0.00 in0.0 mm 0.00 in0.0 mm
12:50 AM 60.6°F15.9°C 54.7°F12.6°C 81% 0.1 mph S0.2 kmh S 1.0 mph1.6 kmh 29.88 in1011.9 mb - 0.00 in0.0 mm 0.00 in0.0 mm
12:40 AM 60.6°F15.9°C 54.7°F12.6°C 81% 0.8 mph SSE1.3 kmh SSE 5.0 mph8.0 kmh 29.88 in1011.9 mb - 0.00 in0.0 mm 0.00 in0.0 mm
12:30 AM 60.6°F15.9°C 54.7°F12.6°C 81% 2.1 mph SE3.4 kmh SE 4.0 mph6.4 kmh 29.88 in1011.9 mb - 0.00 in0.0 mm 0.00 in0.0 mm
12:20 AM 60.6°F15.9°C 54.7°F12.6°C 81% 4.3 mph S6.9 kmh S 7.0 mph11.3 kmh 29.88 in1011.9 mb - 0.00 in0.0 mm 0.00 in0.0 mm
12:10 AM 60.6°F15.9°C 54.8°F12.7°C 81% 1.1 mph S1.8 kmh S 1.0 mph1.6 kmh 29.88 in1011.9 mb - 0.00 in0.0 mm 0.00 in0.0 mm
12:00 AM 60.6°F15.9°C 54.7°F12.6°C 81% 1.6 mph S2.6 kmh S 7.0 mph11.3 kmh 29.89 in1012.2 mb - 0.00 in0.0 mm 0.00 in0.0 mm